sensor_id;sensor_type;location;lat;lon;timestamp;pressure;altitude;pressure_sealevel;temperature;humidity
64253;BME280;50592;52.958;-7.470;2023-03-03T00:02:04;101878.53;;;4.72;100.00
64253;BME280;50592;52.958;-7.470;2023-03-03T00:04:30;101876.72;;;4.74;100.00
64253;BME280;50592;52.958;-7.470;2023-03-03T00:06:55;101877.53;;;4.75;100.00
64253;BME280;50592;52.958;-7.470;2023-03-03T00:09:21;101875.78;;;4.75;100.00
64253;BME280;50592;52.958;-7.470;2023-03-03T00:11:52;101883.56;;;4.77;100.00
64253;BME280;50592;52.958;-7.470;2023-03-03T00:14:29;101872.13;;;4.79;100.00
64253;BME280;50592;52.958;-7.470;2023-03-03T00:16:56;101878.41;;;4.75;100.00
64253;BME280;50592;52.958;-7.470;2023-03-03T00:19:22;101880.16;;;4.75;100.00
64253;BME280;50592;52.958;-7.470;2023-03-03T00:21:49;101875.66;;;4.78;100.00
64253;BME280;50592;52.958;-7.470;2023-03-03T00:26:54;101877.69;;;4.91;100.00
64253;BME280;50592;52.958;-7.470;2023-03-03T00:32:50;101878.69;;;4.88;100.00
64253;BME280;50592;52.958;-7.470;2023-03-03T00:37:54;101882.19;;;4.89;100.00
64253;BME280;50592;52.958;-7.470;2023-03-03T00:40:26;101878.75;;;4.87;100.00
64253;BME280;50592;52.958;-7.470;2023-03-03T00:42:55;101877.06;;;4.86;100.00
64253;BME280;50592;52.958;-7.470;2023-03-03T00:45:23;101889.25;;;4.87;100.00
64253;BME280;50592;52.958;-7.470;2023-03-03T00:47:51;101883.16;;;4.86;100.00
64253;BME280;50592;52.958;-7.470;2023-03-03T00:50:32;101895.13;;;4.92;100.00
64253;BME280;50592;52.958;-7.470;2023-03-03T00:53:19;101887.28;;;4.92;100.00
64253;BME280;50592;52.958;-7.470;2023-03-03T00:55:47;101903.81;;;4.92;100.00
64253;BME280;50592;52.958;-7.470;2023-03-03T00:58:13;101894.28;;;4.91;100.00
64253;BME280;50592;52.958;-7.470;2023-03-03T01:00:43;101895.06;;;4.93;100.00
64253;BME280;50592;52.958;-7.470;2023-03-03T01:03:14;101900.91;;;4.99;100.00
64253;BME280;50592;52.958;-7.470;2023-03-03T01:05:41;101898.22;;;5.00;100.00
64253;BME280;50592;52.958;-7.470;2023-03-03T01:08:07;101898.06;;;5.03;100.00
64253;BME280;50592;52.958;-7.470;2023-03-03T01:10:37;101903.31;;;5.03;100.00
64253;BME280;50592;52.958;-7.470;2023-03-03T01:13:04;101898.94;;;5.04;100.00
64253;BME280;50592;52.958;-7.470;2023-03-03T01:15:31;101897.19;;;5.04;100.00
64253;BME280;50592;52.958;-7.470;2023-03-03T01:17:56;101898.00;;;5.05;100.00
64253;BME280;50592;52.958;-7.470;2023-03-03T01:20:22;101893.75;;;5.02;100.00
64253;BME280;50592;52.958;-7.470;2023-03-03T01:22:48;101892.91;;;5.02;100.00
64253;BME280;50592;52.958;-7.470;2023-03-03T01:25:14;101899.66;;;5.07;100.00
64253;BME280;50592;52.958;-7.470;2023-03-03T01:27:40;101904.75;;;5.11;100.00
64253;BME280;50592;52.958;-7.470;2023-03-03T01:30:07;101903.81;;;5.12;100.00
64253;BME280;50592;52.958;-7.470;2023-03-03T01:32:33;101901.19;;;5.12;100.00
64253;BME280;50592;52.958;-7.470;2023-03-03T01:34:59;101896.75;;;5.14;100.00
64253;BME280;50592;52.958;-7.470;2023-03-03T01:37:25;101901.03;;;5.15;100.00
64253;BME280;50592;52.958;-7.470;2023-03-03T01:39:54;101896.44;;;5.20;100.00
64253;BME280;50592;52.958;-7.470;2023-03-03T01:42:20;101897.38;;;5.19;100.00
64253;BME280;50592;52.958;-7.470;2023-03-03T01:44:47;101900.91;;;5.18;100.00
64253;BME280;50592;52.958;-7.470;2023-03-03T01:47:21;101902.69;;;5.17;100.00
64253;BME280;50592;52.958;-7.470;2023-03-03T01:49:55;101904.47;;;5.17;100.00
64253;BME280;50592;52.958;-7.470;2023-03-03T01:52:32;101896.38;;;5.21;100.00
64253;BME280;50592;52.958;-7.470;2023-03-03T01:55:03;101899.28;;;5.15;100.00
64253;BME280;50592;52.958;-7.470;2023-03-03T01:57:36;101910.00;;;5.11;100.00
64253;BME280;50592;52.958;-7.470;2023-03-03T02:00:05;101903.13;;;5.08;100.00
64253;BME280;50592;52.958;-7.470;2023-03-03T02:02:39;101896.09;;;5.08;100.00
64253;BME280;50592;52.958;-7.470;2023-03-03T02:05:06;101895.53;;;5.02;100.00
64253;BME280;50592;52.958;-7.470;2023-03-03T02:07:32;101898.38;;;4.97;100.00
64253;BME280;50592;52.958;-7.470;2023-03-03T02:10:05;101899.28;;;4.96;100.00
64253;BME280;50592;52.958;-7.470;2023-03-03T02:17:42;101904.19;;;4.84;100.00
64253;BME280;50592;52.958;-7.470;2023-03-03T02:20:18;101898.09;;;4.84;100.00
64253;BME280;50592;52.958;-7.470;2023-03-03T02:22:50;101900.22;;;4.76;100.00
64253;BME280;50592;52.958;-7.470;2023-03-03T02:25:29;101896.09;;;4.70;100.00
64253;BME280;50592;52.958;-7.470;2023-03-03T02:27:57;101888.38;;;4.67;100.00
64253;BME280;50592;52.958;-7.470;2023-03-03T02:30:23;101886.69;;;4.66;100.00
64253;BME280;50592;52.958;-7.470;2023-03-03T02:32:49;101883.34;;;4.62;100.00
64253;BME280;50592;52.958;-7.470;2023-03-03T02:35:28;101890.53;;;4.58;100.00
64253;BME280;50592;52.958;-7.470;2023-03-03T02:37:57;101890.66;;;4.55;100.00
64253;BME280;50592;52.958;-7.470;2023-03-03T02:40:25;101892.41;;;4.55;100.00
64253;BME280;50592;52.958;-7.470;2023-03-03T02:42:54;101888.72;;;4.59;100.00
64253;BME280;50592;52.958;-7.470;2023-03-03T02:45:21;101882.72;;;4.57;100.00
64253;BME280;50592;52.958;-7.470;2023-03-03T02:47:49;101888.59;;;4.62;100.00
64253;BME280;50592;52.958;-7.470;2023-03-03T02:50:16;101884.13;;;4.64;100.00
64253;BME280;50592;52.958;-7.470;2023-03-03T02:52:43;101884.06;;;4.66;100.00
64253;BME280;50592;52.958;-7.470;2023-03-03T02:55:09;101873.59;;;4.66;100.00
64253;BME280;50592;52.958;-7.470;2023-03-03T02:57:34;101881.38;;;4.67;100.00
64253;BME280;50592;52.958;-7.470;2023-03-03T03:00:00;101884.66;;;4.72;100.00
64253;BME280;50592;52.958;-7.470;2023-03-03T03:02:27;101884.56;;;4.74;100.00
64253;BME280;50592;52.958;-7.470;2023-03-03T03:04:54;101883.66;;;4.75;100.00
64253;BME280;50592;52.958;-7.470;2023-03-03T03:07:22;101879.34;;;4.74;100.00
64253;BME280;50592;52.958;-7.470;2023-03-03T03:09:48;101882.25;;;4.68;100.00
64253;BME280;50592;52.958;-7.470;2023-03-03T03:12:14;101877.91;;;4.67;100.00
64253;BME280;50592;52.958;-7.470;2023-03-03T03:14:41;101877.00;;;4.68;100.00
64253;BME280;50592;52.958;-7.470;2023-03-03T03:17:07;101884.78;;;4.69;100.00
64253;BME280;50592;52.958;-7.470;2023-03-03T03:19:33;101884.06;;;4.66;100.00
64253;BME280;50592;52.958;-7.470;2023-03-03T03:22:01;101885.81;;;4.65;100.00
64253;BME280;50592;52.958;-7.470;2023-03-03T03:24:28;101884.34;;;4.59;100.00
64253;BME280;50592;52.958;-7.470;2023-03-03T03:26:59;101887.09;;;4.56;100.00
64253;BME280;50592;52.958;-7.470;2023-03-03T03:29:26;101884.56;;;4.55;100.00
64253;BME280;50592;52.958;-7.470;2023-03-03T03:31:52;101887.91;;;4.58;100.00
64253;BME280;50592;52.958;-7.470;2023-03-03T03:34:18;101886.91;;;4.61;100.00
64253;BME280;50592;52.958;-7.470;2023-03-03T03:36:44;101878.25;;;4.59;100.00
64253;BME280;50592;52.958;-7.470;2023-03-03T03:39:13;101879.91;;;4.62;100.00
64253;BME280;50592;52.958;-7.470;2023-03-03T03:41:44;101877.97;;;4.65;100.00
64253;BME280;50592;52.958;-7.470;2023-03-03T03:44:09;101881.44;;;4.66;100.00
64253;BME280;50592;52.958;-7.470;2023-03-03T03:46:36;101878.19;;;4.61;100.00
64253;BME280;50592;52.958;-7.470;2023-03-03T03:49:02;101880.81;;;4.61;100.00
64253;BME280;50592;52.958;-7.470;2023-03-03T03:51:28;101875.50;;;4.62;100.00
64253;BME280;50592;52.958;-7.470;2023-03-03T03:53:55;101880.66;;;4.64;100.00
64253;BME280;50592;52.958;-7.470;2023-03-03T03:56:21;101878.03;;;4.64;100.00
64253;BME280;50592;52.958;-7.470;2023-03-03T03:58:51;101873.94;;;4.58;100.00
64253;BME280;50592;52.958;-7.470;2023-03-03T04:01:17;101881.16;;;4.53;100.00
64253;BME280;50592;52.958;-7.470;2023-03-03T04:03:46;101883.91;;;4.50;100.00
64253;BME280;50592;52.958;-7.470;2023-03-03T04:06:17;101885.81;;;4.46;100.00
64253;BME280;50592;52.958;-7.470;2023-03-03T04:08:43;101883.25;;;4.44;100.00
64253;BME280;50592;52.958;-7.470;2023-03-03T04:11:10;101872.09;;;4.41;100.00
64253;BME280;50592;52.958;-7.470;2023-03-03T04:13:36;101882.34;;;4.45;100.00
64253;BME280;50592;52.958;-7.470;2023-03-03T04:16:05;101883.91;;;4.50;100.00
64253;BME280;50592;52.958;-7.470;2023-03-03T04:18:31;101884.50;;;4.56;100.00
64253;BME280;50592;52.958;-7.470;2023-03-03T04:20:57;101885.06;;;4.63;100.00
64253;BME280;50592;52.958;-7.470;2023-03-03T04:23:24;101880.72;;;4.62;100.00
64253;BME280;50592;52.958;-7.470;2023-03-03T04:25:50;101878.13;;;4.62;100.00
64253;BME280;50592;52.958;-7.470;2023-03-03T04:28:17;101875.28;;;4.67;100.00
64253;BME280;50592;52.958;-7.470;2023-03-03T04:30:43;101878.69;;;4.69;100.00
64253;BME280;50592;52.958;-7.470;2023-03-03T04:33:09;101879.47;;;4.71;100.00
64253;BME280;50592;52.958;-7.470;2023-03-03T04:35:37;101882.94;;;4.71;100.00
64253;BME280;50592;52.958;-7.470;2023-03-03T04:38:03;101880.72;;;4.62;100.00
64253;BME280;50592;52.958;-7.470;2023-03-03T04:40:30;101874.09;;;4.55;100.00
64253;BME280;50592;52.958;-7.470;2023-03-03T04:42:56;101884.56;;;4.55;100.00
64253;BME280;50592;52.958;-7.470;2023-03-03T04:45:23;101880.31;;;4.52;100.00
64253;BME280;50592;52.958;-7.470;2023-03-03T04:47:48;101883.69;;;4.54;100.00
64253;BME280;50592;52.958;-7.470;2023-03-03T04:50:15;101880.94;;;4.57;100.00
64253;BME280;50592;52.958;-7.470;2023-03-03T04:52:41;101884.78;;;4.50;100.00
64253;BME280;50592;52.958;-7.470;2023-03-03T04:55:08;101882.06;;;4.52;100.00
64253;BME280;50592;52.958;-7.470;2023-03-03T04:57:34;101888.88;;;4.56;100.00
64253;BME280;50592;52.958;-7.470;2023-03-03T05:00:00;101885.34;;;4.57;100.00
64253;BME280;50592;52.958;-7.470;2023-03-03T05:02:26;101887.97;;;4.57;100.00
64253;BME280;50592;52.958;-7.470;2023-03-03T05:04:52;101883.63;;;4.56;100.00
64253;BME280;50592;52.958;-7.470;2023-03-03T05:07:18;101882.81;;;4.55;100.00
64253;BME280;50592;52.958;-7.470;2023-03-03T05:09:45;101883.63;;;4.56;100.00
64253;BME280;50592;52.958;-7.470;2023-03-03T05:12:11;101888.03;;;4.55;100.00
64253;BME280;50592;52.958;-7.470;2023-03-03T05:14:36;101885.41;;;4.55;100.00
64253;BME280;50592;52.958;-7.470;2023-03-03T05:17:03;101880.03;;;4.58;100.00
64253;BME280;50592;52.958;-7.470;2023-03-03T05:19:29;101893.13;;;4.58;100.00
64253;BME280;50592;52.958;-7.470;2023-03-03T05:21:54;101886.19;;;4.57;100.00
64253;BME280;50592;52.958;-7.470;2023-03-03T05:24:22;101889.66;;;4.58;100.00
64253;BME280;50592;52.958;-7.470;2023-03-03T05:26:48;101899.41;;;4.54;100.00
64253;BME280;50592;52.958;-7.470;2023-03-03T05:29:14;101891.03;;;4.46;100.00
64253;BME280;50592;52.958;-7.470;2023-03-03T05:31:40;101895.59;;;4.42;100.00
64253;BME280;50592;52.958;-7.470;2023-03-03T05:34:05;101900.69;;;4.45;100.00
64253;BME280;50592;52.958;-7.470;2023-03-03T05:36:31;101891.69;;;4.51;100.00
64253;BME280;50592;52.958;-7.470;2023-03-03T05:38:57;101901.13;;;4.55;100.00
64253;BME280;50592;52.958;-7.470;2023-03-03T05:41:23;101893.81;;;4.62;100.00
64253;BME280;50592;52.958;-7.470;2023-03-03T05:43:49;101892.84;;;4.65;100.00
64253;BME280;50592;52.958;-7.470;2023-03-03T05:46:14;101894.41;;;4.69;100.00
64253;BME280;50592;52.958;-7.470;2023-03-03T05:48:40;101904.75;;;4.72;100.00
64253;BME280;50592;52.958;-7.470;2023-03-03T05:51:06;101898.16;;;4.63;100.00
64253;BME280;50592;52.958;-7.470;2023-03-03T05:53:32;101898.38;;;4.58;100.00
64253;BME280;50592;52.958;-7.470;2023-03-03T05:55:58;101894.91;;;4.58;100.00
64253;BME280;50592;52.958;-7.470;2023-03-03T05:58:24;101891.13;;;4.64;100.00
64253;BME280;50592;52.958;-7.470;2023-03-03T06:00:50;101889.22;;;4.67;100.00
64253;BME280;50592;52.958;-7.470;2023-03-03T06:03:16;101892.56;;;4.71;100.00
64253;BME280;50592;52.958;-7.470;2023-03-03T06:05:42;101904.75;;;4.72;100.00
64253;BME280;50592;52.958;-7.470;2023-03-03T06:08:08;101905.03;;;4.66;100.00
64253;BME280;50592;52.958;-7.470;2023-03-03T06:10:34;101907.84;;;4.61;100.00
64253;BME280;50592;52.958;-7.470;2023-03-03T06:13:03;101906.84;;;4.64;100.00
64253;BME280;50592;52.958;-7.470;2023-03-03T06:15:29;101905.16;;;4.63;100.00
64253;BME280;50592;52.958;-7.470;2023-03-03T06:17:55;101912.22;;;4.61;100.00
64253;BME280;50592;52.958;-7.470;2023-03-03T06:20:20;101907.84;;;4.61;100.00
64253;BME280;50592;52.958;-7.470;2023-03-03T06:22:46;101907.00;;;4.61;100.00
64253;BME280;50592;52.958;-7.470;2023-03-03T06:25:12;101909.41;;;4.65;100.00
64253;BME280;50592;52.958;-7.470;2023-03-03T06:27:37;101914.56;;;4.67;100.00
64253;BME280;50592;52.958;-7.470;2023-03-03T06:30:04;101916.34;;;4.66;100.00
64253;BME280;50592;52.958;-7.470;2023-03-03T06:32:30;101917.47;;;4.61;100.00
64253;BME280;50592;52.958;-7.470;2023-03-03T06:34:56;101925.38;;;4.59;100.00
64253;BME280;50592;52.958;-7.470;2023-03-03T06:37:22;101929.66;;;4.62;100.00
64253;BME280;50592;52.958;-7.470;2023-03-03T06:39:48;101925.19;;;4.64;100.00
64253;BME280;50592;52.958;-7.470;2023-03-03T06:42:13;101924.16;;;4.68;100.00
64253;BME280;50592;52.958;-7.470;2023-03-03T06:44:39;101932.22;;;4.63;100.00
64253;BME280;50592;52.958;-7.470;2023-03-03T06:47:05;101930.56;;;4.61;100.00
64253;BME280;50592;52.958;-7.470;2023-03-03T06:49:31;101935.66;;;4.64;100.00
64253;BME280;50592;52.958;-7.470;2023-03-03T06:51:58;101931.88;;;4.71;100.00
64253;BME280;50592;52.958;-7.470;2023-03-03T06:54:27;101933.84;;;4.66;100.00
64253;BME280;50592;52.958;-7.470;2023-03-03T06:56:57;101932.97;;;4.65;100.00
64253;BME280;50592;52.958;-7.470;2023-03-03T06:59:26;101931.22;;;4.66;100.00
64253;BME280;50592;52.958;-7.470;2023-03-03T07:01:52;101923.28;;;4.67;100.00
64253;BME280;50592;52.958;-7.470;2023-03-03T07:06:44;101922.72;;;4.80;100.00
64253;BME280;50592;52.958;-7.470;2023-03-03T07:09:21;101922.59;;;4.83;100.00
64253;BME280;50592;52.958;-7.470;2023-03-03T07:11:50;101927.06;;;4.81;100.00
64253;BME280;50592;52.958;-7.470;2023-03-03T07:14:18;101934.06;;;4.80;100.00
64253;BME280;50592;52.958;-7.470;2023-03-03T07:16:45;101934.28;;;4.76;100.00
64253;BME280;50592;52.958;-7.470;2023-03-03T07:19:19;101934.78;;;4.84;100.00
64253;BME280;50592;52.958;-7.470;2023-03-03T07:21:46;101941.84;;;4.82;100.00
64253;BME280;50592;52.958;-7.470;2023-03-03T07:26:47;101934.72;;;4.86;100.00
64253;BME280;50592;52.958;-7.470;2023-03-03T07:29:32;101944.06;;;4.91;100.00
64253;BME280;50592;52.958;-7.470;2023-03-03T07:32:00;101939.59;;;4.93;100.00
64253;BME280;50592;52.958;-7.470;2023-03-03T07:34:36;101943.91;;;4.94;100.00
64253;BME280;50592;52.958;-7.470;2023-03-03T07:37:03;101945.19;;;4.86;100.00
64253;BME280;50592;52.958;-7.470;2023-03-03T07:39:36;101940.66;;;4.89;100.00
64253;BME280;50592;52.958;-7.470;2023-03-03T07:42:30;101945.81;;;4.91;100.00
64253;BME280;50592;52.958;-7.470;2023-03-03T07:45:29;101950.22;;;4.90;100.00
64253;BME280;50592;52.958;-7.470;2023-03-03T07:50:39;101952.81;;;4.71;100.00
64253;BME280;50592;52.958;-7.470;2023-03-03T07:53:13;101958.25;;;4.66;100.00
64253;BME280;50592;52.958;-7.470;2023-03-03T07:55:40;101964.34;;;4.67;100.00
64253;BME280;50592;52.958;-7.470;2023-03-03T08:03:16;101965.94;;;4.90;100.00
64253;BME280;50592;52.958;-7.470;2023-03-03T08:05:46;101972.81;;;4.93;100.00
64253;BME280;50592;52.958;-7.470;2023-03-03T08:08:34;101970.06;;;4.96;100.00
64253;BME280;50592;52.958;-7.470;2023-03-03T08:11:03;101970.19;;;4.93;100.00
64253;BME280;50592;52.958;-7.470;2023-03-03T08:16:01;101962.84;;;5.01;100.00
64253;BME280;50592;52.958;-7.470;2023-03-03T08:18:34;101972.97;;;5.09;100.00
64253;BME280;50592;52.958;-7.470;2023-03-03T08:21:23;101986.00;;;5.11;100.00
64253;BME280;50592;52.958;-7.470;2023-03-03T08:23:50;101987.69;;;5.12;100.00
64253;BME280;50592;52.958;-7.470;2023-03-03T08:26:19;101984.72;;;5.19;100.00
64253;BME280;50592;52.958;-7.470;2023-03-03T08:28:45;101989.00;;;5.22;100.00
64253;BME280;50592;52.958;-7.470;2023-03-03T08:31:11;101986.16;;;5.27;100.00
64253;BME280;50592;52.958;-7.470;2023-03-03T08:33:38;101988.63;;;5.30;100.00
64253;BME280;50592;52.958;-7.470;2023-03-03T08:36:05;102000.88;;;5.29;100.00
64253;BME280;50592;52.958;-7.470;2023-03-03T08:38:31;101993.94;;;5.28;100.00
64253;BME280;50592;52.958;-7.470;2023-03-03T08:40:56;101986.75;;;5.32;100.00
64253;BME280;50592;52.958;-7.470;2023-03-03T08:43:22;101997.06;;;5.37;100.00
64253;BME280;50592;52.958;-7.470;2023-03-03T08:45:51;101994.22;;;5.41;100.00
64253;BME280;50592;52.958;-7.470;2023-03-03T08:48:17;101995.84;;;5.44;100.00
64253;BME280;50592;52.958;-7.470;2023-03-03T08:50:45;102002.72;;;5.46;100.00
64253;BME280;50592;52.958;-7.470;2023-03-03T08:53:12;102007.88;;;5.48;100.00
64253;BME280;50592;52.958;-7.470;2023-03-03T08:55:39;102008.81;;;5.47;100.00
64253;BME280;50592;52.958;-7.470;2023-03-03T08:58:05;102009.81;;;5.44;100.00
64253;BME280;50592;52.958;-7.470;2023-03-03T09:00:31;102010.94;;;5.39;100.00
64253;BME280;50592;52.958;-7.470;2023-03-03T09:02:57;102013.56;;;5.39;100.00
64253;BME280;50592;52.958;-7.470;2023-03-03T09:05:24;102019.00;;;5.34;100.00
64253;BME280;50592;52.958;-7.470;2023-03-03T09:07:50;102020.91;;;5.30;100.00
64253;BME280;50592;52.958;-7.470;2023-03-03T09:10:19;102012.28;;;5.28;100.00
64253;BME280;50592;52.958;-7.470;2023-03-03T09:12:50;102014.84;;;5.30;100.00
64253;BME280;50592;52.958;-7.470;2023-03-03T09:15:22;102019.81;;;5.36;100.00
64253;BME280;50592;52.958;-7.470;2023-03-03T09:17:48;102020.44;;;5.41;100.00
64253;BME280;50592;52.958;-7.470;2023-03-03T09:22:52;102028.94;;;5.46;100.00
64253;BME280;50592;52.958;-7.470;2023-03-03T09:25:34;102033.81;;;5.54;100.00
64253;BME280;50592;52.958;-7.470;2023-03-03T09:28:02;102023.25;;;5.56;100.00
64253;BME280;50592;52.958;-7.470;2023-03-03T09:30:39;102024.03;;;5.58;100.00
64253;BME280;50592;52.958;-7.470;2023-03-03T09:36:00;102031.53;;;5.66;100.00
64253;BME280;50592;52.958;-7.470;2023-03-03T09:38:32;102031.47;;;5.67;100.00
64253;BME280;50592;52.958;-7.470;2023-03-03T09:49:34;102034.66;;;5.74;100.00
64253;BME280;50592;52.958;-7.470;2023-03-03T10:00:06;102037.00;;;5.80;100.00
64253;BME280;50592;52.958;-7.470;2023-03-03T10:05:40;102036.13;;;5.80;100.00
64253;BME280;50592;52.958;-7.470;2023-03-03T10:24:30;102056.69;;;5.89;100.00
64253;BME280;50592;52.958;-7.470;2023-03-03T10:30:20;102061.47;;;5.81;100.00
64253;BME280;50592;52.958;-7.470;2023-03-03T10:35:54;102051.03;;;5.79;100.00
64253;BME280;50592;52.958;-7.470;2023-03-03T10:47:16;102058.69;;;5.84;100.00
64253;BME280;50592;52.958;-7.470;2023-03-03T10:52:42;102057.75;;;5.85;100.00
64253;BME280;50592;52.958;-7.470;2023-03-03T10:55:24;102070.44;;;5.94;100.00
64253;BME280;50592;52.958;-7.470;2023-03-03T11:06:13;102065.81;;;6.19;100.00
64253;BME280;50592;52.958;-7.470;2023-03-03T11:09:02;102064.66;;;6.25;100.00
64253;BME280;50592;52.958;-7.470;2023-03-03T11:11:38;102066.75;;;6.18;100.00
64253;BME280;50592;52.958;-7.470;2023-03-03T11:14:14;102065.50;;;6.25;100.00
64253;BME280;50592;52.958;-7.470;2023-03-03T11:25:27;102077.19;;;6.55;100.00
64253;BME280;50592;52.958;-7.470;2023-03-03T11:31:03;102075.19;;;6.60;100.00
64253;BME280;50592;52.958;-7.470;2023-03-03T11:33:42;102080.06;;;6.68;100.00
64253;BME280;50592;52.958;-7.470;2023-03-03T11:36:42;102080.28;;;6.63;100.00
64253;BME280;50592;52.958;-7.470;2023-03-03T11:39:08;102079.72;;;6.56;100.00
64253;BME280;50592;52.958;-7.470;2023-03-03T11:41:45;102070.78;;;6.61;100.00
64253;BME280;50592;52.958;-7.470;2023-03-03T11:49:47;102076.88;;;6.61;100.00
64253;BME280;50592;52.958;-7.470;2023-03-03T11:55:35;102075.81;;;6.65;100.00
64253;BME280;50592;52.958;-7.470;2023-03-03T11:58:19;102074.00;;;6.66;100.00
64253;BME280;50592;52.958;-7.470;2023-03-03T12:03:47;102070.41;;;6.68;100.00
64253;BME280;50592;52.958;-7.470;2023-03-03T12:06:27;102072.00;;;6.71;100.00
64253;BME280;50592;52.958;-7.470;2023-03-03T12:14:47;102065.97;;;6.87;100.00
64253;BME280;50592;52.958;-7.470;2023-03-03T12:22:52;102070.81;;;6.94;100.00
64253;BME280;50592;52.958;-7.470;2023-03-03T12:25:34;102050.47;;;6.98;100.00
64253;BME280;50592;52.958;-7.470;2023-03-03T12:28:18;102060.66;;;7.04;100.00
64253;BME280;50592;52.958;-7.470;2023-03-03T12:39:35;102046.09;;;6.99;100.00
64253;BME280;50592;52.958;-7.470;2023-03-03T12:44:43;102048.53;;;7.02;100.00
64253;BME280;50592;52.958;-7.470;2023-03-03T12:47:32;102049.47;;;7.01;100.00
64253;BME280;50592;52.958;-7.470;2023-03-03T12:55:37;102047.16;;;6.94;100.00
64253;BME280;50592;52.958;-7.470;2023-03-03T12:58:18;102042.50;;;7.00;100.00
64253;BME280;50592;52.958;-7.470;2023-03-03T13:06:31;102039.56;;;7.06;100.00
64253;BME280;50592;52.958;-7.470;2023-03-03T13:15:21;102051.88;;;7.05;100.00
64253;BME280;50592;52.958;-7.470;2023-03-03T13:30:49;102041.72;;;7.31;100.00
64253;BME280;50592;52.958;-7.470;2023-03-03T13:33:24;102041.97;;;7.27;100.00
64253;BME280;50592;52.958;-7.470;2023-03-03T13:36:12;102040.63;;;7.36;100.00
64253;BME280;50592;52.958;-7.470;2023-03-03T13:38:41;102035.47;;;7.34;100.00
64253;BME280;50592;52.958;-7.470;2023-03-03T13:43:45;102040.94;;;7.13;100.00
64253;BME280;50592;52.958;-7.470;2023-03-03T13:46:40;102032.25;;;6.95;100.00
64253;BME280;50592;52.958;-7.470;2023-03-03T13:49:15;102026.97;;;6.95;100.00
64253;BME280;50592;52.958;-7.470;2023-03-03T13:51:59;102021.88;;;6.92;100.00
64253;BME280;50592;52.958;-7.470;2023-03-03T13:57:19;102013.63;;;7.16;100.00
64253;BME280;50592;52.958;-7.470;2023-03-03T14:03:01;102011.34;;;7.26;100.00
64253;BME280;50592;52.958;-7.470;2023-03-03T14:05:48;102010.31;;;7.28;100.00
64253;BME280;50592;52.958;-7.470;2023-03-03T14:10:46;102002.19;;;7.33;100.00
64253;BME280;50592;52.958;-7.470;2023-03-03T14:22:05;102011.19;;;7.29;100.00
64253;BME280;50592;52.958;-7.470;2023-03-03T14:28:19;102006.75;;;7.29;100.00
64253;BME280;50592;52.958;-7.470;2023-03-03T14:30:42;101997.59;;;7.37;100.00
64253;BME280;50592;52.958;-7.470;2023-03-03T14:35:37;101994.72;;;7.41;100.00
64253;BME280;50592;52.958;-7.470;2023-03-03T14:38:11;101997.19;;;7.44;100.00
64253;BME280;50592;52.958;-7.470;2023-03-03T14:40:39;101994.38;;;7.48;100.00
64253;BME280;50592;52.958;-7.470;2023-03-03T14:43:39;101993.84;;;7.41;100.00
64253;BME280;50592;52.958;-7.470;2023-03-03T14:46:50;101985.22;;;7.23;100.00
64253;BME280;50592;52.958;-7.470;2023-03-03T14:48:53;101987.00;;;7.22;100.00
64253;BME280;50592;52.958;-7.470;2023-03-03T14:54:07;101989.28;;;7.28;100.00
64253;BME280;50592;52.958;-7.470;2023-03-03T14:56:35;101989.97;;;7.32;100.00
64253;BME280;50592;52.958;-7.470;2023-03-03T14:59:25;101991.81;;;7.30;100.00
64253;BME280;50592;52.958;-7.470;2023-03-03T15:04:33;101997.03;;;6.98;100.00
64253;BME280;50592;52.958;-7.470;2023-03-03T15:09:51;101991.94;;;6.94;100.00
64253;BME280;50592;52.958;-7.470;2023-03-03T15:12:20;101991.13;;;6.94;100.00
64253;BME280;50592;52.958;-7.470;2023-03-03T15:14:52;101988.13;;;6.84;100.00
64253;BME280;50592;52.958;-7.470;2023-03-03T15:17:36;101992.34;;;6.87;100.00
64253;BME280;50592;52.958;-7.470;2023-03-03T15:31:17;101993.53;;;6.81;100.00
64253;BME280;50592;52.958;-7.470;2023-03-03T15:34:00;101989.91;;;6.83;100.00
64253;BME280;50592;52.958;-7.470;2023-03-03T15:40:04;101998.81;;;6.81;100.00
64253;BME280;50592;52.958;-7.470;2023-03-03T15:42:47;101996.00;;;6.84;100.00
64253;BME280;50592;52.958;-7.470;2023-03-03T15:51:15;101994.97;;;6.87;100.00
64253;BME280;50592;52.958;-7.470;2023-03-03T15:56:55;101986.47;;;6.65;100.00
64253;BME280;50592;52.958;-7.470;2023-03-03T16:02:20;101985.84;;;6.60;100.00
64253;BME280;50592;52.958;-7.470;2023-03-03T16:05:19;101984.00;;;6.62;100.00
64253;BME280;50592;52.958;-7.470;2023-03-03T16:11:10;101977.66;;;6.66;100.00
64253;BME280;50592;52.958;-7.470;2023-03-03T16:14:02;101978.50;;;6.67;100.00
64253;BME280;50592;52.958;-7.470;2023-03-03T16:16:53;101975.25;;;6.62;100.00
64253;BME280;50592;52.958;-7.470;2023-03-03T16:19:26;101974.66;;;6.56;100.00
64253;BME280;50592;52.958;-7.470;2023-03-03T16:24:54;101984.03;;;6.44;100.00
64253;BME280;50592;52.958;-7.470;2023-03-03T16:30:22;101986.28;;;6.35;100.00
64253;BME280;50592;52.958;-7.470;2023-03-03T16:32:55;101990.91;;;6.29;100.00
64253;BME280;50592;52.958;-7.470;2023-03-03T16:35:33;101991.06;;;6.26;100.00
64253;BME280;50592;52.958;-7.470;2023-03-03T16:38:11;101990.16;;;6.27;100.00
64253;BME280;50592;52.958;-7.470;2023-03-03T16:40:54;102000.09;;;6.20;100.00
64253;BME280;50592;52.958;-7.470;2023-03-03T16:45:50;101989.19;;;6.11;100.00
64253;BME280;50592;52.958;-7.470;2023-03-03T16:51:13;101988.69;;;6.02;100.00
64253;BME280;50592;52.958;-7.470;2023-03-03T16:53:54;101990.56;;;6.00;100.00
64253;BME280;50592;52.958;-7.470;2023-03-03T16:56:24;101999.66;;;5.93;100.00
64253;BME280;50592;52.958;-7.470;2023-03-03T17:01:53;102004.91;;;5.93;100.00
64253;BME280;50592;52.958;-7.470;2023-03-03T17:06:58;102003.28;;;5.90;100.00
64253;BME280;50592;52.958;-7.470;2023-03-03T17:12:41;102006.78;;;5.91;100.00
64253;BME280;50592;52.958;-7.470;2023-03-03T17:26:35;102021.19;;;5.82;100.00